sensor_id;sensor_type;location;lat;lon;timestamp;P1;durP1;ratioP1;P2;durP2;ratioP2
17947;SDS011;9099;47.958;11.366;2022-07-29T00:01:31;1.00;;;1.00;;
17947;SDS011;9099;47.958;11.366;2022-07-29T00:03:58;0.80;;;0.80;;
17947;SDS011;9099;47.958;11.366;2022-07-29T00:06:25;2.65;;;1.10;;
17947;SDS011;9099;47.958;11.366;2022-07-29T00:08:52;0.80;;;0.80;;
17947;SDS011;9099;47.958;11.366;2022-07-29T00:11:18;1.17;;;1.00;;
17947;SDS011;9099;47.958;11.366;2022-07-29T00:13:45;1.73;;;0.90;;
17947;SDS011;9099;47.958;11.366;2022-07-29T00:16:12;1.00;;;1.00;;
17947;SDS011;9099;47.958;11.366;2022-07-29T00:18:40;0.93;;;0.93;;
17947;SDS011;9099;47.958;11.366;2022-07-29T00:21:07;1.10;;;1.10;;
17947;SDS011;9099;47.958;11.366;2022-07-29T00:23:34;0.90;;;0.90;;
17947;SDS011;9099;47.958;11.366;2022-07-29T00:26:01;0.82;;;0.82;;
17947;SDS011;9099;47.958;11.366;2022-07-29T00:28:28;0.95;;;0.95;;
17947;SDS011;9099;47.958;11.366;2022-07-29T00:30:55;1.30;;;1.20;;
17947;SDS011;9099;47.958;11.366;2022-07-29T00:33:22;0.80;;;0.80;;
17947;SDS011;9099;47.958;11.366;2022-07-29T00:35:50;1.00;;;1.00;;
17947;SDS011;9099;47.958;11.366;2022-07-29T00:38:18;0.95;;;0.80;;
17947;SDS011;9099;47.958;11.366;2022-07-29T00:40:46;1.23;;;0.95;;
17947;SDS011;9099;47.958;11.366;2022-07-29T00:43:14;1.33;;;1.00;;
17947;SDS011;9099;47.958;11.366;2022-07-29T00:45:41;1.00;;;0.75;;
17947;SDS011;9099;47.958;11.366;2022-07-29T00:48:08;0.73;;;0.73;;
17947;SDS011;9099;47.958;11.366;2022-07-29T00:50:35;0.93;;;0.93;;
17947;SDS011;9099;47.958;11.366;2022-07-29T00:53:04;0.90;;;0.90;;
17947;SDS011;9099;47.958;11.366;2022-07-29T00:55:32;0.80;;;0.80;;
17947;SDS011;9099;47.958;11.366;2022-07-29T00:58:00;1.02;;;1.02;;
17947;SDS011;9099;47.958;11.366;2022-07-29T01:00:28;0.90;;;0.90;;
17947;SDS011;9099;47.958;11.366;2022-07-29T01:02:55;1.02;;;1.02;;
17947;SDS011;9099;47.958;11.366;2022-07-29T01:05:23;1.77;;;0.98;;
17947;SDS011;9099;47.958;11.366;2022-07-29T01:07:53;1.38;;;0.98;;
17947;SDS011;9099;47.958;11.366;2022-07-29T01:10:21;1.25;;;0.77;;
17947;SDS011;9099;47.958;11.366;2022-07-29T01:12:50;0.73;;;0.73;;
17947;SDS011;9099;47.958;11.366;2022-07-29T01:15:18;0.63;;;0.63;;
17947;SDS011;9099;47.958;11.366;2022-07-29T01:17:48;1.92;;;0.80;;
17947;SDS011;9099;47.958;11.366;2022-07-29T01:20:20;0.88;;;0.77;;
17947;SDS011;9099;47.958;11.366;2022-07-29T01:22:56;0.65;;;0.65;;
17947;SDS011;9099;47.958;11.366;2022-07-29T01:25:48;0.70;;;0.70;;
17947;SDS011;9099;47.958;11.366;2022-07-29T01:28:41;0.77;;;0.77;;
17947;SDS011;9099;47.958;11.366;2022-07-29T01:31:25;0.68;;;0.68;;
17947;SDS011;9099;47.958;11.366;2022-07-29T01:33:57;0.77;;;0.77;;
17947;SDS011;9099;47.958;11.366;2022-07-29T01:36:29;0.80;;;0.80;;
17947;SDS011;9099;47.958;11.366;2022-07-29T01:39:02;0.60;;;0.60;;
17947;SDS011;9099;47.958;11.366;2022-07-29T01:41:32;0.60;;;0.60;;
17947;SDS011;9099;47.958;11.366;2022-07-29T01:44:10;0.57;;;0.57;;
17947;SDS011;9099;47.958;11.366;2022-07-29T01:46:41;0.70;;;0.70;;
17947;SDS011;9099;47.958;11.366;2022-07-29T01:49:16;0.77;;;0.77;;
17947;SDS011;9099;47.958;11.366;2022-07-29T01:51:47;0.70;;;0.70;;
17947;SDS011;9099;47.958;11.366;2022-07-29T01:54:18;0.70;;;0.70;;
17947;SDS011;9099;47.958;11.366;2022-07-29T01:56:48;0.80;;;0.73;;
17947;SDS011;9099;47.958;11.366;2022-07-29T01:59:19;0.60;;;0.60;;
17947;SDS011;9099;47.958;11.366;2022-07-29T02:01:48;0.80;;;0.80;;
17947;SDS011;9099;47.958;11.366;2022-07-29T02:04:18;0.63;;;0.63;;
17947;SDS011;9099;47.958;11.366;2022-07-29T02:06:46;1.05;;;0.80;;
17947;SDS011;9099;47.958;11.366;2022-07-29T02:09:15;0.80;;;0.80;;
17947;SDS011;9099;47.958;11.366;2022-07-29T02:11:45;0.90;;;0.90;;
17947;SDS011;9099;47.958;11.366;2022-07-29T02:14:15;0.95;;;0.80;;
17947;SDS011;9099;47.958;11.366;2022-07-29T02:16:47;0.80;;;0.80;;
17947;SDS011;9099;47.958;11.366;2022-07-29T02:19:18;0.80;;;0.80;;
17947;SDS011;9099;47.958;11.366;2022-07-29T02:21:47;1.33;;;0.70;;
17947;SDS011;9099;47.958;11.366;2022-07-29T02:24:16;0.90;;;0.90;;
17947;SDS011;9099;47.958;11.366;2022-07-29T02:26:45;0.90;;;0.90;;
17947;SDS011;9099;47.958;11.366;2022-07-29T02:29:13;0.90;;;0.90;;
17947;SDS011;9099;47.958;11.366;2022-07-29T02:31:44;1.10;;;0.70;;
17947;SDS011;9099;47.958;11.366;2022-07-29T02:34:14;0.70;;;0.70;;
17947;SDS011;9099;47.958;11.366;2022-07-29T02:36:43;0.70;;;0.70;;
17947;SDS011;9099;47.958;11.366;2022-07-29T02:39:12;0.75;;;0.75;;
17947;SDS011;9099;47.958;11.366;2022-07-29T02:41:41;0.88;;;0.88;;
17947;SDS011;9099;47.958;11.366;2022-07-29T02:44:10;1.05;;;1.00;;
17947;SDS011;9099;47.958;11.366;2022-07-29T02:46:41;0.60;;;0.60;;
17947;SDS011;9099;47.958;11.366;2022-07-29T02:49:13;1.42;;;0.85;;
17947;SDS011;9099;47.958;11.366;2022-07-29T02:51:45;0.88;;;0.82;;
17947;SDS011;9099;47.958;11.366;2022-07-29T02:54:18;0.82;;;0.82;;
17947;SDS011;9099;47.958;11.366;2022-07-29T02:56:49;0.60;;;0.60;;
17947;SDS011;9099;47.958;11.366;2022-07-29T02:59:22;0.93;;;0.93;;
17947;SDS011;9099;47.958;11.366;2022-07-29T03:01:54;0.60;;;0.60;;
17947;SDS011;9099;47.958;11.366;2022-07-29T03:04:24;0.80;;;0.80;;
17947;SDS011;9099;47.958;11.366;2022-07-29T03:06:54;0.90;;;0.82;;
17947;SDS011;9099;47.958;11.366;2022-07-29T03:09:23;2.25;;;1.10;;
17947;SDS011;9099;47.958;11.366;2022-07-29T03:11:52;0.80;;;0.80;;
17947;SDS011;9099;47.958;11.366;2022-07-29T03:14:20;0.75;;;0.75;;
17947;SDS011;9099;47.958;11.366;2022-07-29T03:16:48;0.65;;;0.65;;
17947;SDS011;9099;47.958;11.366;2022-07-29T03:19:18;1.30;;;0.60;;
17947;SDS011;9099;47.958;11.366;2022-07-29T03:21:46;0.82;;;0.80;;
17947;SDS011;9099;47.958;11.366;2022-07-29T03:24:26;1.00;;;1.00;;
17947;SDS011;9099;47.958;11.366;2022-07-29T03:26:57;1.17;;;0.90;;
17947;SDS011;9099;47.958;11.366;2022-07-29T03:29:24;0.90;;;0.90;;
17947;SDS011;9099;47.958;11.366;2022-07-29T03:31:51;0.80;;;0.80;;
17947;SDS011;9099;47.958;11.366;2022-07-29T03:34:20;1.90;;;1.17;;
17947;SDS011;9099;47.958;11.366;2022-07-29T03:36:47;1.00;;;1.00;;
17947;SDS011;9099;47.958;11.366;2022-07-29T03:39:15;1.00;;;1.00;;
17947;SDS011;9099;47.958;11.366;2022-07-29T03:41:46;1.13;;;1.13;;
17947;SDS011;9099;47.958;11.366;2022-07-29T03:44:16;1.10;;;1.10;;
17947;SDS011;9099;47.958;11.366;2022-07-29T03:46:44;1.20;;;1.05;;
17947;SDS011;9099;47.958;11.366;2022-07-29T03:49:12;1.13;;;1.10;;
17947;SDS011;9099;47.958;11.366;2022-07-29T03:51:43;0.90;;;0.90;;
17947;SDS011;9099;47.958;11.366;2022-07-29T03:54:10;1.05;;;1.00;;
17947;SDS011;9099;47.958;11.366;2022-07-29T03:56:38;1.00;;;1.00;;
17947;SDS011;9099;47.958;11.366;2022-07-29T03:59:08;1.30;;;1.20;;
17947;SDS011;9099;47.958;11.366;2022-07-29T04:01:37;1.20;;;1.10;;
17947;SDS011;9099;47.958;11.366;2022-07-29T04:04:04;1.23;;;0.98;;
17947;SDS011;9099;47.958;11.366;2022-07-29T04:06:37;1.08;;;1.08;;
17947;SDS011;9099;47.958;11.366;2022-07-29T04:09:06;1.20;;;1.10;;
17947;SDS011;9099;47.958;11.366;2022-07-29T04:11:33;1.33;;;1.10;;
17947;SDS011;9099;47.958;11.366;2022-07-29T04:14:01;2.25;;;1.10;;
17947;SDS011;9099;47.958;11.366;2022-07-29T04:16:28;1.45;;;1.20;;
17947;SDS011;9099;47.958;11.366;2022-07-29T04:18:55;1.25;;;1.20;;
17947;SDS011;9099;47.958;11.366;2022-07-29T04:21:22;1.95;;;1.20;;
17947;SDS011;9099;47.958;11.366;2022-07-29T04:23:49;1.30;;;1.20;;
17947;SDS011;9099;47.958;11.366;2022-07-29T04:26:17;1.77;;;1.50;;
17947;SDS011;9099;47.958;11.366;2022-07-29T04:28:45;1.13;;;1.13;;
17947;SDS011;9099;47.958;11.366;2022-07-29T04:31:12;1.30;;;1.20;;
17947;SDS011;9099;47.958;11.366;2022-07-29T04:33:39;1.38;;;1.27;;
17947;SDS011;9099;47.958;11.366;2022-07-29T04:36:06;2.55;;;1.20;;
17947;SDS011;9099;47.958;11.366;2022-07-29T04:38:33;2.13;;;1.20;;
17947;SDS011;9099;47.958;11.366;2022-07-29T04:41:00;1.33;;;1.23;;
17947;SDS011;9099;47.958;11.366;2022-07-29T04:43:28;5.35;;;1.33;;
17947;SDS011;9099;47.958;11.366;2022-07-29T04:45:55;1.30;;;1.10;;
17947;SDS011;9099;47.958;11.366;2022-07-29T04:48:22;1.10;;;1.10;;
17947;SDS011;9099;47.958;11.366;2022-07-29T04:50:48;1.20;;;1.20;;
17947;SDS011;9099;47.958;11.366;2022-07-29T04:53:15;1.23;;;1.20;;
17947;SDS011;9099;47.958;11.366;2022-07-29T04:55:42;2.05;;;1.38;;
17947;SDS011;9099;47.958;11.366;2022-07-29T04:58:09;1.20;;;1.20;;
17947;SDS011;9099;47.958;11.366;2022-07-29T05:00:38;1.23;;;1.13;;
17947;SDS011;9099;47.958;11.366;2022-07-29T05:03:05;1.20;;;1.10;;
17947;SDS011;9099;47.958;11.366;2022-07-29T05:05:32;1.40;;;1.30;;
17947;SDS011;9099;47.958;11.366;2022-07-29T05:07:59;2.80;;;1.75;;
17947;SDS011;9099;47.958;11.366;2022-07-29T05:10:26;2.22;;;1.50;;
17947;SDS011;9099;47.958;11.366;2022-07-29T05:12:53;2.60;;;1.50;;
17947;SDS011;9099;47.958;11.366;2022-07-29T05:15:20;1.42;;;1.33;;
17947;SDS011;9099;47.958;11.366;2022-07-29T05:17:48;1.40;;;1.30;;
17947;SDS011;9099;47.958;11.366;2022-07-29T05:20:15;2.50;;;1.30;;
17947;SDS011;9099;47.958;11.366;2022-07-29T05:22:43;1.45;;;1.35;;
17947;SDS011;9099;47.958;11.366;2022-07-29T05:25:10;2.53;;;1.40;;
17947;SDS011;9099;47.958;11.366;2022-07-29T05:27:37;1.73;;;1.55;;
17947;SDS011;9099;47.958;11.366;2022-07-29T05:30:04;1.67;;;1.58;;
17947;SDS011;9099;47.958;11.366;2022-07-29T05:32:32;1.77;;;1.30;;
17947;SDS011;9099;47.958;11.366;2022-07-29T05:35:00;1.52;;;1.42;;
17947;SDS011;9099;47.958;11.366;2022-07-29T05:37:28;2.55;;;1.58;;
17947;SDS011;9099;47.958;11.366;2022-07-29T05:39:55;3.55;;;1.50;;
17947;SDS011;9099;47.958;11.366;2022-07-29T05:42:21;2.95;;;1.60;;
17947;SDS011;9099;47.958;11.366;2022-07-29T05:44:48;1.30;;;1.30;;
17947;SDS011;9099;47.958;11.366;2022-07-29T05:47:15;1.35;;;1.30;;
17947;SDS011;9099;47.958;11.366;2022-07-29T05:49:43;3.53;;;2.08;;
17947;SDS011;9099;47.958;11.366;2022-07-29T05:52:12;2.60;;;1.55;;
17947;SDS011;9099;47.958;11.366;2022-07-29T05:54:39;2.55;;;1.38;;
17947;SDS011;9099;47.958;11.366;2022-07-29T05:57:06;1.55;;;1.27;;
17947;SDS011;9099;47.958;11.366;2022-07-29T05:59:35;2.55;;;1.35;;
17947;SDS011;9099;47.958;11.366;2022-07-29T06:02:02;1.23;;;1.23;;
17947;SDS011;9099;47.958;11.366;2022-07-29T06:04:30;1.65;;;1.27;;
17947;SDS011;9099;47.958;11.366;2022-07-29T06:06:56;1.85;;;1.30;;
17947;SDS011;9099;47.958;11.366;2022-07-29T06:09:25;1.92;;;1.30;;
17947;SDS011;9099;47.958;11.366;2022-07-29T06:11:52;1.27;;;1.17;;
17947;SDS011;9099;47.958;11.366;2022-07-29T06:14:19;2.10;;;1.30;;
17947;SDS011;9099;47.958;11.366;2022-07-29T06:16:45;1.38;;;1.17;;
17947;SDS011;9099;47.958;11.366;2022-07-29T06:19:12;1.10;;;1.10;;
17947;SDS011;9099;47.958;11.366;2022-07-29T06:21:41;1.17;;;1.10;;
17947;SDS011;9099;47.958;11.366;2022-07-29T06:24:08;1.70;;;1.17;;
17947;SDS011;9099;47.958;11.366;2022-07-29T06:26:38;0.90;;;0.90;;
17947;SDS011;9099;47.958;11.366;2022-07-29T06:29:05;0.95;;;0.95;;
17947;SDS011;9099;47.958;11.366;2022-07-29T06:31:32;1.10;;;0.93;;
17947;SDS011;9099;47.958;11.366;2022-07-29T06:33:58;0.82;;;0.82;;
17947;SDS011;9099;47.958;11.366;2022-07-29T06:36:25;1.58;;;1.00;;
17947;SDS011;9099;47.958;11.366;2022-07-29T06:38:52;1.00;;;1.00;;
17947;SDS011;9099;47.958;11.366;2022-07-29T06:41:19;0.80;;;0.80;;
17947;SDS011;9099;47.958;11.366;2022-07-29T06:43:47;0.95;;;0.93;;
17947;SDS011;9099;47.958;11.366;2022-07-29T06:46:17;1.42;;;0.90;;
17947;SDS011;9099;47.958;11.366;2022-07-29T06:48:45;1.10;;;1.10;;
17947;SDS011;9099;47.958;11.366;2022-07-29T06:51:13;1.10;;;1.10;;
17947;SDS011;9099;47.958;11.366;2022-07-29T06:53:41;0.90;;;0.90;;
17947;SDS011;9099;47.958;11.366;2022-07-29T06:56:09;1.08;;;1.08;;
17947;SDS011;9099;47.958;11.366;2022-07-29T06:58:38;1.08;;;0.98;;
17947;SDS011;9099;47.958;11.366;2022-07-29T07:01:07;1.10;;;1.10;;
17947;SDS011;9099;47.958;11.366;2022-07-29T07:03:34;3.13;;;1.13;;
17947;SDS011;9099;47.958;11.366;2022-07-29T07:06:00;0.98;;;0.98;;
17947;SDS011;9099;47.958;11.366;2022-07-29T07:08:28;1.15;;;0.98;;
17947;SDS011;9099;47.958;11.366;2022-07-29T07:10:55;1.52;;;1.20;;
17947;SDS011;9099;47.958;11.366;2022-07-29T07:13:22;0.98;;;0.98;;
17947;SDS011;9099;47.958;11.366;2022-07-29T07:15:49;0.95;;;0.95;;
17947;SDS011;9099;47.958;11.366;2022-07-29T07:18:18;1.42;;;1.10;;
17947;SDS011;9099;47.958;11.366;2022-07-29T07:20:45;3.20;;;1.27;;
17947;SDS011;9099;47.958;11.366;2022-07-29T07:23:12;1.20;;;1.20;;
17947;SDS011;9099;47.958;11.366;2022-07-29T07:25:39;1.00;;;1.00;;
17947;SDS011;9099;47.958;11.366;2022-07-29T07:28:07;1.20;;;1.10;;
17947;SDS011;9099;47.958;11.366;2022-07-29T07:30:33;1.13;;;1.13;;
17947;SDS011;9099;47.958;11.366;2022-07-29T07:33:01;0.90;;;0.90;;
17947;SDS011;9099;47.958;11.366;2022-07-29T07:35:29;0.80;;;0.80;;
17947;SDS011;9099;47.958;11.366;2022-07-29T07:37:56;1.10;;;1.10;;
17947;SDS011;9099;47.958;11.366;2022-07-29T07:40:24;0.80;;;0.80;;
17947;SDS011;9099;47.958;11.366;2022-07-29T07:42:51;1.00;;;1.00;;
17947;SDS011;9099;47.958;11.366;2022-07-29T07:45:18;1.33;;;1.02;;
17947;SDS011;9099;47.958;11.366;2022-07-29T07:47:45;1.17;;;1.10;;
17947;SDS011;9099;47.958;11.366;2022-07-29T07:50:11;0.90;;;0.90;;
17947;SDS011;9099;47.958;11.366;2022-07-29T07:52:46;1.35;;;1.10;;
17947;SDS011;9099;47.958;11.366;2022-07-29T07:55:14;1.00;;;0.90;;
17947;SDS011;9099;47.958;11.366;2022-07-29T07:57:41;1.25;;;1.00;;
17947;SDS011;9099;47.958;11.366;2022-07-29T08:00:09;0.98;;;0.98;;
17947;SDS011;9099;47.958;11.366;2022-07-29T08:02:36;1.10;;;1.10;;
17947;SDS011;9099;47.958;11.366;2022-07-29T08:05:04;1.10;;;1.10;;
17947;SDS011;9099;47.958;11.366;2022-07-29T08:07:32;1.27;;;1.08;;
17947;SDS011;9099;47.958;11.366;2022-07-29T08:10:01;0.98;;;0.98;;
17947;SDS011;9099;47.958;11.366;2022-07-29T08:12:28;1.00;;;1.00;;
17947;SDS011;9099;47.958;11.366;2022-07-29T08:14:55;1.40;;;1.00;;
17947;SDS011;9099;47.958;11.366;2022-07-29T08:17:22;1.10;;;1.10;;
17947;SDS011;9099;47.958;11.366;2022-07-29T08:19:49;1.00;;;1.00;;
17947;SDS011;9099;47.958;11.366;2022-07-29T08:22:16;2.08;;;1.10;;
17947;SDS011;9099;47.958;11.366;2022-07-29T08:24:42;1.08;;;1.00;;
17947;SDS011;9099;47.958;11.366;2022-07-29T08:27:13;0.90;;;0.90;;
17947;SDS011;9099;47.958;11.366;2022-07-29T08:29:40;1.02;;;1.02;;
17947;SDS011;9099;47.958;11.366;2022-07-29T08:32:07;1.10;;;1.10;;
17947;SDS011;9099;47.958;11.366;2022-07-29T08:34:33;1.30;;;1.20;;
17947;SDS011;9099;47.958;11.366;2022-07-29T08:37:00;1.13;;;1.13;;
17947;SDS011;9099;47.958;11.366;2022-07-29T08:39:27;1.08;;;1.08;;
17947;SDS011;9099;47.958;11.366;2022-07-29T08:41:54;1.13;;;1.13;;
17947;SDS011;9099;47.958;11.366;2022-07-29T08:44:23;1.20;;;1.20;;
17947;SDS011;9099;47.958;11.366;2022-07-29T08:46:50;1.33;;;1.23;;
17947;SDS011;9099;47.958;11.366;2022-07-29T08:49:17;1.63;;;1.40;;
17947;SDS011;9099;47.958;11.366;2022-07-29T08:51:44;1.05;;;1.05;;
17947;SDS011;9099;47.958;11.366;2022-07-29T08:54:11;1.27;;;1.27;;
17947;SDS011;9099;47.958;11.366;2022-07-29T08:56:43;1.45;;;1.35;;
17947;SDS011;9099;47.958;11.366;2022-07-29T08:59:14;1.45;;;1.40;;
17947;SDS011;9099;47.958;11.366;2022-07-29T09:01:43;1.45;;;1.35;;
17947;SDS011;9099;47.958;11.366;2022-07-29T09:04:12;2.17;;;1.55;;
17947;SDS011;9099;47.958;11.366;2022-07-29T09:06:42;1.67;;;1.38;;
17947;SDS011;9099;47.958;11.366;2022-07-29T09:09:10;1.60;;;1.50;;
17947;SDS011;9099;47.958;11.366;2022-07-29T09:11:38;1.55;;;1.45;;
17947;SDS011;9099;47.958;11.366;2022-07-29T09:14:05;1.50;;;1.40;;
17947;SDS011;9099;47.958;11.366;2022-07-29T09:16:50;1.80;;;1.50;;
17947;SDS011;9099;47.958;11.366;2022-07-29T09:19:19;1.60;;;1.50;;
17947;SDS011;9099;47.958;11.366;2022-07-29T09:21:47;1.40;;;1.40;;
17947;SDS011;9099;47.958;11.366;2022-07-29T09:27:10;1.42;;;1.33;;
17947;SDS011;9099;47.958;11.366;2022-07-29T09:29:45;1.50;;;1.40;;
17947;SDS011;9099;47.958;11.366;2022-07-29T09:32:13;1.33;;;1.30;;
17947;SDS011;9099;47.958;11.366;2022-07-29T09:34:40;1.50;;;1.40;;
17947;SDS011;9099;47.958;11.366;2022-07-29T09:37:07;1.42;;;1.40;;
17947;SDS011;9099;47.958;11.366;2022-07-29T09:39:35;1.17;;;1.17;;
17947;SDS011;9099;47.958;11.366;2022-07-29T09:42:09;1.40;;;1.30;;
17947;SDS011;9099;47.958;11.366;2022-07-29T09:44:44;1.20;;;1.20;;
17947;SDS011;9099;47.958;11.366;2022-07-29T09:47:14;1.50;;;1.40;;
17947;SDS011;9099;47.958;11.366;2022-07-29T09:52:27;1.98;;;1.48;;
17947;SDS011;9099;47.958;11.366;2022-07-29T09:55:03;1.50;;;1.40;;
17947;SDS011;9099;47.958;11.366;2022-07-29T09:57:31;1.58;;;1.52;;
17947;SDS011;9099;47.958;11.366;2022-07-29T09:59:59;1.50;;;1.40;;
17947;SDS011;9099;47.958;11.366;2022-07-29T10:02:28;1.90;;;1.80;;
17947;SDS011;9099;47.958;11.366;2022-07-29T10:04:56;1.42;;;1.38;;
17947;SDS011;9099;47.958;11.366;2022-07-29T10:07:24;1.73;;;1.55;;
17947;SDS011;9099;47.958;11.366;2022-07-29T10:09:52;1.60;;;1.50;;
17947;SDS011;9099;47.958;11.366;2022-07-29T10:12:20;1.52;;;1.42;;
17947;SDS011;9099;47.958;11.366;2022-07-29T10:14:47;1.58;;;1.40;;
17947;SDS011;9099;47.958;11.366;2022-07-29T10:17:15;1.90;;;1.80;;
17947;SDS011;9099;47.958;11.366;2022-07-29T10:19:44;2.05;;;1.50;;
17947;SDS011;9099;47.958;11.366;2022-07-29T10:22:12;2.05;;;1.70;;
17947;SDS011;9099;47.958;11.366;2022-07-29T10:24:38;1.90;;;1.80;;
17947;SDS011;9099;47.958;11.366;2022-07-29T10:27:07;1.67;;;1.58;;
17947;SDS011;9099;47.958;11.366;2022-07-29T10:29:34;2.00;;;1.90;;
17947;SDS011;9099;47.958;11.366;2022-07-29T10:37:52;2.05;;;1.85;;
17947;SDS011;9099;47.958;11.366;2022-07-29T10:40:35;1.60;;;1.50;;
17947;SDS011;9099;47.958;11.366;2022-07-29T10:43:28;1.95;;;1.63;;
17947;SDS011;9099;47.958;11.366;2022-07-29T10:46:01;1.63;;;1.60;;
17947;SDS011;9099;47.958;11.366;2022-07-29T10:48:29;1.67;;;1.58;;
17947;SDS011;9099;47.958;11.366;2022-07-29T10:50:58;1.83;;;1.73;;
17947;SDS011;9099;47.958;11.366;2022-07-29T10:56:26;1.80;;;1.70;;
17947;SDS011;9099;47.958;11.366;2022-07-29T11:01:49;2.00;;;1.90;;
17947;SDS011;9099;47.958;11.366;2022-07-29T11:04:21;1.70;;;1.60;;
17947;SDS011;9099;47.958;11.366;2022-07-29T11:07:25;1.58;;;1.48;;
17947;SDS011;9099;47.958;11.366;2022-07-29T11:12:46;1.70;;;1.60;;
17947;SDS011;9099;47.958;11.366;2022-07-29T11:15:15;1.90;;;1.80;;
17947;SDS011;9099;47.958;11.366;2022-07-29T11:20:35;1.77;;;1.67;;
17947;SDS011;9099;47.958;11.366;2022-07-29T11:23:19;1.70;;;1.60;;
17947;SDS011;9099;47.958;11.366;2022-07-29T11:28:52;2.63;;;1.80;;
17947;SDS011;9099;47.958;11.366;2022-07-29T11:31:32;2.28;;;1.75;;
17947;SDS011;9099;47.958;11.366;2022-07-29T11:37:13;2.00;;;1.90;;
17947;SDS011;9099;47.958;11.366;2022-07-29T11:39:46;1.90;;;1.80;;
17947;SDS011;9099;47.958;11.366;2022-07-29T11:42:37;2.08;;;1.88;;
17947;SDS011;9099;47.958;11.366;2022-07-29T11:45:06;2.03;;;1.88;;
17947;SDS011;9099;47.958;11.366;2022-07-29T11:47:35;2.35;;;1.90;;
17947;SDS011;9099;47.958;11.366;2022-07-29T11:50:04;2.60;;;2.00;;
17947;SDS011;9099;47.958;11.366;2022-07-29T11:52:32;1.98;;;1.88;;
17947;SDS011;9099;47.958;11.366;2022-07-29T11:55:04;2.10;;;2.00;;
17947;SDS011;9099;47.958;11.366;2022-07-29T11:57:32;2.67;;;2.20;;
17947;SDS011;9099;47.958;11.366;2022-07-29T12:00:01;2.22;;;2.08;;
17947;SDS011;9099;47.958;11.366;2022-07-29T12:02:39;1.92;;;1.80;;
17947;SDS011;9099;47.958;11.366;2022-07-29T12:05:07;2.80;;;2.00;;
17947;SDS011;9099;47.958;11.366;2022-07-29T12:07:36;2.20;;;1.80;;
17947;SDS011;9099;47.958;11.366;2022-07-29T12:10:06;2.08;;;1.95;;
17947;SDS011;9099;47.958;11.366;2022-07-29T12:12:33;1.92;;;1.80;;
17947;SDS011;9099;47.958;11.366;2022-07-29T12:15:10;1.92;;;1.83;;
17947;SDS011;9099;47.958;11.366;2022-07-29T12:17:38;2.17;;;2.00;;
17947;SDS011;9099;47.958;11.366;2022-07-29T12:20:05;2.83;;;2.03;;
17947;SDS011;9099;47.958;11.366;2022-07-29T12:22:33;2.20;;;2.10;;
17947;SDS011;9099;47.958;11.366;2022-07-29T12:25:03;2.05;;;1.88;;
17947;SDS011;9099;47.958;11.366;2022-07-29T12:27:34;1.67;;;1.58;;
17947;SDS011;9099;47.958;11.366;2022-07-29T12:30:02;1.73;;;1.60;;
17947;SDS011;9099;47.958;11.366;2022-07-29T12:32:31;1.83;;;1.73;;
17947;SDS011;9099;47.958;11.366;2022-07-29T12:35:00;1.95;;;1.70;;
17947;SDS011;9099;47.958;11.366;2022-07-29T12:37:29;1.80;;;1.70;;
17947;SDS011;9099;47.958;11.366;2022-07-29T12:39:57;1.92;;;1.83;;
17947;SDS011;9099;47.958;11.366;2022-07-29T12:42:25;1.92;;;1.65;;
17947;SDS011;9099;47.958;11.366;2022-07-29T12:44:52;1.65;;;1.63;;
17947;SDS011;9099;47.958;11.366;2022-07-29T12:47:19;2.35;;;1.70;;
17947;SDS011;9099;47.958;11.366;2022-07-29T12:49:46;1.80;;;1.70;;
17947;SDS011;9099;47.958;11.366;2022-07-29T12:52:24;1.83;;;1.73;;
17947;SDS011;9099;47.958;11.366;2022-07-29T12:54:52;1.80;;;1.70;;
17947;SDS011;9099;47.958;11.366;2022-07-29T12:57:20;2.35;;;1.73;;
17947;SDS011;9099;47.958;11.366;2022-07-29T12:59:59;2.13;;;1.90;;
17947;SDS011;9099;47.958;11.366;2022-07-29T13:02:31;1.80;;;1.70;;
17947;SDS011;9099;47.958;11.366;2022-07-29T13:04:59;1.80;;;1.70;;
17947;SDS011;9099;47.958;11.366;2022-07-29T13:07:27;1.83;;;1.73;;
17947;SDS011;9099;47.958;11.366;2022-07-29T13:09:58;2.42;;;1.95;;
17947;SDS011;9099;47.958;11.366;2022-07-29T13:12:36;1.50;;;1.50;;
17947;SDS011;9099;47.958;11.366;2022-07-29T13:15:13;1.95;;;1.85;;
17947;SDS011;9099;47.958;11.366;2022-07-29T13:17:41;1.83;;;1.73;;
17947;SDS011;9099;47.958;11.366;2022-07-29T13:20:09;1.70;;;1.60;;
17947;SDS011;9099;47.958;11.366;2022-07-29T13:22:39;1.92;;;1.80;;
17947;SDS011;9099;47.958;11.366;2022-07-29T13:25:07;2.38;;;1.73;;
17947;SDS011;9099;47.958;11.366;2022-07-29T13:27:36;2.00;;;1.77;;
17947;SDS011;9099;47.958;11.366;2022-07-29T13:30:05;1.98;;;1.88;;
17947;SDS011;9099;47.958;11.366;2022-07-29T13:32:35;2.28;;;2.08;;
17947;SDS011;9099;47.958;11.366;2022-07-29T13:35:03;3.38;;;1.70;;
17947;SDS011;9099;47.958;11.366;2022-07-29T13:37:32;2.20;;;2.00;;
17947;SDS011;9099;47.958;11.366;2022-07-29T13:40:00;3.15;;;1.88;;
17947;SDS011;9099;47.958;11.366;2022-07-29T13:42:28;3.08;;;2.00;;
17947;SDS011;9099;47.958;11.366;2022-07-29T13:44:55;1.55;;;1.55;;
17947;SDS011;9099;47.958;11.366;2022-07-29T13:47:22;2.20;;;1.45;;
17947;SDS011;9099;47.958;11.366;2022-07-29T13:49:50;1.58;;;1.40;;
17947;SDS011;9099;47.958;11.366;2022-07-29T13:52:18;1.48;;;1.45;;
17947;SDS011;9099;47.958;11.366;2022-07-29T13:54:45;1.73;;;1.63;;
17947;SDS011;9099;47.958;11.366;2022-07-29T13:57:12;1.20;;;1.20;;
17947;SDS011;9099;47.958;11.366;2022-07-29T13:59:40;1.90;;;1.80;;
17947;SDS011;9099;47.958;11.366;2022-07-29T14:02:08;1.60;;;1.50;;
17947;SDS011;9099;47.958;11.366;2022-07-29T14:04:35;1.30;;;1.30;;
17947;SDS011;9099;47.958;11.366;2022-07-29T14:07:04;1.50;;;1.40;;
17947;SDS011;9099;47.958;11.366;2022-07-29T14:09:31;1.40;;;1.40;;
17947;SDS011;9099;47.958;11.366;2022-07-29T14:11:58;1.52;;;1.42;;
17947;SDS011;9099;47.958;11.366;2022-07-29T14:14:25;1.60;;;1.50;;
17947;SDS011;9099;47.958;11.366;2022-07-29T14:16:51;2.17;;;1.70;;
17947;SDS011;9099;47.958;11.366;2022-07-29T14:19:18;1.50;;;1.40;;
17947;SDS011;9099;47.958;11.366;2022-07-29T14:21:45;1.50;;;1.48;;
17947;SDS011;9099;47.958;11.366;2022-07-29T14:24:13;1.85;;;1.75;;
17947;SDS011;9099;47.958;11.366;2022-07-29T14:26:40;1.55;;;1.45;;
17947;SDS011;9099;47.958;11.366;2022-07-29T14:29:07;1.50;;;1.40;;
17947;SDS011;9099;47.958;11.366;2022-07-29T14:31:34;1.40;;;1.40;;
17947;SDS011;9099;47.958;11.366;2022-07-29T14:34:01;2.97;;;1.73;;
17947;SDS011;9099;47.958;11.366;2022-07-29T14:36:28;2.03;;;1.52;;
17947;SDS011;9099;47.958;11.366;2022-07-29T14:38:55;1.58;;;1.48;;
17947;SDS011;9099;47.958;11.366;2022-07-29T14:41:23;1.48;;;1.38;;
17947;SDS011;9099;47.958;11.366;2022-07-29T14:43:50;2.10;;;1.33;;
17947;SDS011;9099;47.958;11.366;2022-07-29T14:46:18;1.45;;;1.35;;
17947;SDS011;9099;47.958;11.366;2022-07-29T14:48:45;1.25;;;1.23;;
17947;SDS011;9099;47.958;11.366;2022-07-29T14:51:12;1.40;;;1.38;;
17947;SDS011;9099;47.958;11.366;2022-07-29T14:53:38;3.08;;;1.63;;
17947;SDS011;9099;47.958;11.366;2022-07-29T14:56:05;1.63;;;1.52;;
17947;SDS011;9099;47.958;11.366;2022-07-29T14:58:33;1.50;;;1.40;;
17947;SDS011;9099;47.958;11.366;2022-07-29T15:01:00;1.50;;;1.50;;
17947;SDS011;9099;47.958;11.366;2022-07-29T15:03:27;1.70;;;1.60;;
17947;SDS011;9099;47.958;11.366;2022-07-29T15:05:54;2.25;;;1.50;;
17947;SDS011;9099;47.958;11.366;2022-07-29T15:08:21;2.50;;;1.55;;
17947;SDS011;9099;47.958;11.366;2022-07-29T15:10:50;1.50;;;1.40;;
17947;SDS011;9099;47.958;11.366;2022-07-29T15:13:17;1.83;;;1.70;;
17947;SDS011;9099;47.958;11.366;2022-07-29T15:15:45;1.60;;;1.50;;
17947;SDS011;9099;47.958;11.366;2022-07-29T15:18:12;1.80;;;1.70;;
17947;SDS011;9099;47.958;11.366;2022-07-29T15:20:39;1.77;;;1.67;;
17947;SDS011;9099;47.958;11.366;2022-07-29T15:23:06;1.85;;;1.75;;
17947;SDS011;9099;47.958;11.366;2022-07-29T15:25:34;1.70;;;1.60;;
17947;SDS011;9099;47.958;11.366;2022-07-29T15:28:02;1.98;;;1.70;;